Time;durP1;ratioP1;P1;durP2;ratioP2;P2;SDS_P1;SDS_P2;PMS_P1;PMS_P2;Temp;Humidity;BMP_temperature;BMP_pressure;BME280_temperature;BME280_humidity;BME280_pressure;Samples;Min_cycle;Max_cycle;Signal;HPM_P1;HPM_P2
2021/11/04 00:00:58;;;;;;;2.88;1.30;;;;;;;;;;6220157;23;20416;-86
2021/11/04 00:03:23;;;;;;;1.02;0.90;;;;;;;;;;6247306;23;20050;-86
2021/11/04 00:05:49;;;;;;;1.50;1.10;;;;;;;;;;6246668;23;20012;-86
2021/11/04 00:08:14;;;;;;;1.75;1.23;;;;;;;;;;6247120;23;20004;-86
2021/11/04 00:10:40;;;;;;;0.60;0.60;;;;;;;;;;6219921;23;20000;-86
2021/11/04 00:13:06;;;;;;;1.30;0.90;;;;;;;;;;6219795;23;20012;-86
2021/11/04 00:15:31;;;;;;;1.10;1.00;;;;;;;;;;6246696;23;20011;-86
2021/11/04 00:17:58;;;;;;;0.77;0.77;;;;;;;;;;6219920;23;20023;-86
2021/11/04 00:20:24;;;;;;;2.45;0.60;;;;;;;;;;6245157;23;20419;-86
2021/11/04 00:22:50;;;;;;;2.55;0.70;;;;;;;;;;6246638;23;20042;-86
2021/11/04 00:25:18;;;;;;;1.90;0.65;;;;;;;;;;6246510;23;20000;-86
2021/11/04 00:27:43;;;;;;;0.70;0.70;;;;;;;;;;6246681;23;20071;-86
2021/11/04 00:30:12;;;;;;;0.88;0.75;;;;;;;;;;6247003;23;20034;-86
2021/11/04 00:32:42;;;;;;;1.08;0.80;;;;;;;;;;6246407;23;20028;-86
2021/11/04 00:35:08;;;;;;;0.82;0.77;;;;;;;;;;6246616;23;20050;-86
2021/11/04 00:37:33;;;;;;;3.55;1.00;;;;;;;;;;6246600;23;20435;-86
2021/11/04 00:39:58;;;;;;;0.63;0.63;;;;;;;;;;6246589;23;20000;-86
2021/11/04 00:42:24;;;;;;;0.77;0.70;;;;;;;;;;6246339;23;20007;-85
2021/11/04 00:44:49;;;;;;;0.80;0.60;;;;;;;;;;6246576;23;20004;-85
2021/11/04 00:47:15;;;;;;;2.08;0.68;;;;;;;;;;6246699;23;20000;-86
2021/11/04 00:49:40;;;;;;;0.70;0.70;;;;;;;;;;6219646;23;20122;-86
2021/11/04 00:52:06;;;;;;;0.77;0.77;;;;;;;;;;6246385;23;20005;-85
2021/11/04 00:54:31;;;;;;;0.90;0.82;;;;;;;;;;6246351;23;20008;-86
2021/11/04 00:56:57;;;;;;;0.90;0.73;;;;;;;;;;6246461;23;20007;-86
2021/11/04 00:59:22;;;;;;;2.67;0.77;;;;;;;;;;6246383;23;20011;-87
2021/11/04 01:01:48;;;;;;;0.70;0.65;;;;;;;;;;6246313;23;20091;-86
2021/11/04 01:04:13;;;;;;;1.05;0.70;;;;;;;;;;6246430;23;20004;-86
2021/11/04 01:06:39;;;;;;;0.80;0.75;;;;;;;;;;6219450;23;20015;-86
2021/11/04 01:09:04;;;;;;;0.90;0.70;;;;;;;;;;6246401;23;20011;-85
2021/11/04 01:11:30;;;;;;;0.60;0.60;;;;;;;;;;6246304;23;20004;-85
2021/11/04 01:13:55;;;;;;;0.70;0.70;;;;;;;;;;6246224;23;20388;-86
2021/11/04 01:16:21;;;;;;;1.15;0.85;;;;;;;;;;6246419;23;20000;-86
2021/11/04 01:18:48;;;;;;;0.60;0.60;;;;;;;;;;6246457;23;20058;-85
2021/11/04 01:21:14;;;;;;;0.93;0.82;;;;;;;;;;6246418;23;20403;-85
2021/11/04 01:23:40;;;;;;;0.70;0.60;;;;;;;;;;6246328;23;20055;-85
2021/11/04 01:26:06;;;;;;;1.27;1.02;;;;;;;;;;6246333;23;20004;-86
2021/11/04 01:28:32;;;;;;;0.80;0.80;;;;;;;;;;6246264;23;20054;-85
2021/11/04 01:30:57;;;;;;;0.80;0.70;;;;;;;;;;6246571;23;20003;-86
2021/11/04 01:33:23;;;;;;;0.70;0.60;;;;;;;;;;6246389;23;20005;-86
2021/11/04 01:35:48;;;;;;;1.13;0.88;;;;;;;;;;6246236;23;20000;-85
2021/11/04 01:38:15;;;;;;;1.55;0.70;;;;;;;;;;6246507;23;20023;-86
2021/11/04 01:40:41;;;;;;;0.63;0.60;;;;;;;;;;6246206;23;20007;-85
2021/11/04 01:43:06;;;;;;;0.77;0.77;;;;;;;;;;6219529;23;20008;-85
2021/11/04 01:45:32;;;;;;;2.35;0.93;;;;;;;;;;6246400;23;20039;-85
2021/11/04 01:48:01;;;;;;;0.70;0.70;;;;;;;;;;6219375;23;20419;-85
2021/11/04 01:50:26;;;;;;;0.80;0.73;;;;;;;;;;6246225;23;20370;-85
2021/11/04 01:52:52;;;;;;;1.70;0.70;;;;;;;;;;6246102;23;20004;-86
2021/11/04 01:55:23;;;;;;;1.08;0.95;;;;;;;;;;6246109;23;20004;-86
2021/11/04 01:57:50;;;;;;;0.90;0.73;;;;;;;;;;6246495;23;20004;-85
2021/11/04 02:00:21;;;;;;;0.77;0.60;;;;;;;;;;6246254;23;20000;-86
2021/11/04 02:03:12;;;;;;;0.60;0.60;;;;;;;;;;6246065;23;20000;-85
2021/11/04 02:06:09;;;;;;;3.15;0.65;;;;;;;;;;6246926;23;20039;-86
2021/11/04 02:08:52;;;;;;;1.35;0.70;;;;;;;;;;6247915;23;20004;-86
2021/11/04 02:11:22;;;;;;;0.75;0.75;;;;;;;;;;6221018;23;20004;-86
2021/11/04 02:13:56;;;;;;;1.27;0.60;;;;;;;;;;6247740;23;20004;-85
2021/11/04 02:16:24;;;;;;;1.67;0.75;;;;;;;;;;6248054;23;20006;-86
2021/11/04 02:18:53;;;;;;;1.65;1.20;;;;;;;;;;6248002;23;19996;-86
2021/11/04 02:21:39;;;;;;;1.67;0.95;;;;;;;;;;6247869;23;20007;-85
2021/11/04 02:24:14;;;;;;;1.15;0.70;;;;;;;;;;6247843;23;19999;-86
2021/11/04 02:26:40;;;;;;;1.15;0.90;;;;;;;;;;6221054;23;20004;-85
2021/11/04 02:29:07;;;;;;;0.60;0.60;;;;;;;;;;6247914;23;20071;-85
2021/11/04 02:31:33;;;;;;;0.70;0.70;;;;;;;;;;6247771;23;20010;-86
2021/11/04 02:34:00;;;;;;;0.65;0.65;;;;;;;;;;6220901;23;20005;-85
2021/11/04 02:36:26;;;;;;;1.13;0.70;;;;;;;;;;6248011;23;20054;-85
2021/11/04 02:38:51;;;;;;;1.35;0.80;;;;;;;;;;6247645;23;19998;-85
2021/11/04 02:41:18;;;;;;;1.23;0.80;;;;;;;;;;6247642;23;20071;-85
2021/11/04 02:43:44;;;;;;;1.02;0.73;;;;;;;;;;6222527;23;20008;-86
2021/11/04 02:46:11;;;;;;;0.60;0.60;;;;;;;;;;6247905;23;20443;-86
2021/11/04 02:48:39;;;;;;;0.52;0.52;;;;;;;;;;6220594;23;20424;-86
2021/11/04 02:51:04;;;;;;;1.27;0.90;;;;;;;;;;6247642;23;20050;-86
2021/11/04 02:53:30;;;;;;;0.90;0.80;;;;;;;;;;6247463;23;20333;-87
2021/11/04 02:55:56;;;;;;;1.10;0.90;;;;;;;;;;6247620;23;20416;-86
2021/11/04 02:58:23;;;;;;;1.60;0.77;;;;;;;;;;6247373;23;20532;-86
2021/11/04 03:00:52;;;;;;;0.85;0.85;;;;;;;;;;6247487;23;20007;-87
2021/11/04 03:03:18;;;;;;;0.75;0.75;;;;;;;;;;6247830;23;20412;-86
2021/11/04 03:05:43;;;;;;;1.35;1.13;;;;;;;;;;6247373;23;20008;-86
2021/11/04 03:08:09;;;;;;;0.82;0.77;;;;;;;;;;6247313;23;20010;-88
2021/11/04 03:10:35;;;;;;;0.80;0.80;;;;;;;;;;6247433;23;20416;-87
2021/11/04 03:13:01;;;;;;;1.33;0.85;;;;;;;;;;6247162;23;20049;-87
2021/11/04 03:15:29;;;;;;;1.25;0.95;;;;;;;;;;6247321;23;20023;-87
2021/11/04 03:17:57;;;;;;;1.00;0.90;;;;;;;;;;6246939;23;20004;-86
2021/11/04 03:20:23;;;;;;;0.73;0.73;;;;;;;;;;6247416;23;20004;-87
2021/11/04 03:22:49;;;;;;;1.00;0.80;;;;;;;;;;6220264;23;20014;-86
2021/11/04 03:25:18;;;;;;;1.30;1.10;;;;;;;;;;6247584;23;20423;-86
2021/11/04 03:27:47;;;;;;;0.60;0.60;;;;;;;;;;6220461;23;20055;-86
2021/11/04 03:30:17;;;;;;;0.85;0.80;;;;;;;;;;6247482;23;20007;-86
2021/11/04 03:32:44;;;;;;;1.25;0.80;;;;;;;;;;6247103;23;20481;-86
2021/11/04 03:35:11;;;;;;;0.60;0.60;;;;;;;;;;6247046;23;20004;-86
2021/11/04 03:37:40;;;;;;;4.47;0.90;;;;;;;;;;6220202;23;20004;-86
2021/11/04 03:40:07;;;;;;;0.70;0.70;;;;;;;;;;6247602;23;20008;-86
2021/11/04 03:42:32;;;;;;;0.75;0.60;;;;;;;;;;6246953;23;20004;-85
2021/11/04 03:45:00;;;;;;;0.80;0.80;;;;;;;;;;6247247;23;20030;-86
2021/11/04 03:47:30;;;;;;;0.70;0.70;;;;;;;;;;6247009;23;20011;-85
2021/11/04 03:49:56;;;;;;;1.17;0.52;;;;;;;;;;6220101;23;20321;-86
2021/11/04 03:52:22;;;;;;;0.90;0.80;;;;;;;;;;6246743;23;20004;-86
2021/11/04 03:54:49;;;;;;;1.90;1.08;;;;;;;;;;6247105;23;20431;-85
2021/11/04 03:57:14;;;;;;;0.85;0.82;;;;;;;;;;6247066;23;20416;-87
2021/11/04 03:59:40;;;;;;;1.00;0.90;;;;;;;;;;6246927;23;20054;-85
2021/11/04 04:02:09;;;;;;;1.77;0.70;;;;;;;;;;6219746;23;20075;-86
2021/11/04 04:04:35;;;;;;;0.80;0.80;;;;;;;;;;6246706;23;20475;-86
2021/11/04 04:07:00;;;;;;;0.68;0.68;;;;;;;;;;6246905;23;20004;-86
2021/11/04 04:09:26;;;;;;;0.98;0.82;;;;;;;;;;6246738;23;20095;-86
2021/11/04 04:11:53;;;;;;;0.75;0.75;;;;;;;;;;6219848;23;20385;-86
2021/11/04 04:14:20;;;;;;;1.10;0.75;;;;;;;;;;6246792;23;20008;-86
2021/11/04 04:16:46;;;;;;;4.13;0.63;;;;;;;;;;6246726;23;20000;-87
2021/11/04 04:19:12;;;;;;;1.52;0.80;;;;;;;;;;6246665;23;20008;-86
2021/11/04 04:21:38;;;;;;;0.85;0.60;;;;;;;;;;6220204;23;20008;-86
2021/11/04 04:24:03;;;;;;;1.67;0.98;;;;;;;;;;6219870;23;20427;-86
2021/11/04 04:26:29;;;;;;;1.00;0.75;;;;;;;;;;6246851;23;20057;-86
2021/11/04 04:28:55;;;;;;;0.60;0.60;;;;;;;;;;6246488;23;20083;-85
2021/11/04 04:31:20;;;;;;;1.02;0.77;;;;;;;;;;6246656;23;20011;-86
2021/11/04 04:33:45;;;;;;;1.60;0.60;;;;;;;;;;6246525;23;20011;-86
2021/11/04 04:36:11;;;;;;;0.82;0.70;;;;;;;;;;6246715;23;20416;-86
2021/11/04 04:38:37;;;;;;;0.80;0.70;;;;;;;;;;6246691;23;20011;-86
2021/11/04 04:41:02;;;;;;;0.68;0.68;;;;;;;;;;6246671;23;19996;-86
2021/11/04 04:43:28;;;;;;;2.15;0.80;;;;;;;;;;6219789;23;20050;-86
2021/11/04 04:45:54;;;;;;;0.80;0.80;;;;;;;;;;6219562;23;20012;-85
2021/11/04 04:48:19;;;;;;;1.33;0.88;;;;;;;;;;6246502;23;20004;-86
2021/11/04 04:50:45;;;;;;;0.95;0.70;;;;;;;;;;6246415;23;20332;-87
2021/11/04 04:53:10;;;;;;;0.50;0.50;;;;;;;;;;6246435;23;20000;-87
2021/11/04 04:55:36;;;;;;;1.77;0.80;;;;;;;;;;6246314;23;20000;-87
2021/11/04 04:58:02;;;;;;;1.15;0.63;;;;;;;;;;6246748;23;20008;-86
2021/11/04 05:00:28;;;;;;;1.45;0.77;;;;;;;;;;6246531;23;20004;-86
2021/11/04 05:02:54;;;;;;;1.08;0.75;;;;;;;;;;6246243;23;20061;-86
2021/11/04 05:05:20;;;;;;;1.40;0.82;;;;;;;;;;6246124;23;20016;-86
2021/11/04 05:07:45;;;;;;;1.08;0.73;;;;;;;;;;6219582;23;20043;-86
2021/11/04 05:10:11;;;;;;;1.40;0.65;;;;;;;;;;6246359;23;20088;-86
2021/11/04 05:12:37;;;;;;;1.77;0.85;;;;;;;;;;6246119;23;20016;-86
2021/11/04 05:15:04;;;;;;;0.60;0.60;;;;;;;;;;6246331;23;20007;-87
2021/11/04 05:17:30;;;;;;;0.50;0.50;;;;;;;;;;6246452;23;20372;-86
2021/11/04 05:19:55;;;;;;;0.60;0.50;;;;;;;;;;6246696;23;20031;-87
2021/11/04 05:22:21;;;;;;;0.60;0.60;;;;;;;;;;6219352;23;20009;-87
2021/11/04 05:24:46;;;;;;;0.95;0.50;;;;;;;;;;6246544;23;20058;-86
2021/11/04 05:27:12;;;;;;;0.60;0.60;;;;;;;;;;6246574;23;20004;-87
2021/11/04 05:29:38;;;;;;;1.80;0.90;;;;;;;;;;6246438;23;20072;-86
2021/11/04 05:32:07;;;;;;;1.23;1.13;;;;;;;;;;6246210;23;20000;-86
2021/11/04 05:34:40;;;;;;;0.80;0.80;;;;;;;;;;6244723;23;20058;-87
2021/11/04 05:37:08;;;;;;;1.65;1.00;;;;;;;;;;6246309;23;20079;-86
2021/11/04 05:39:35;;;;;;;2.75;1.20;;;;;;;;;;6246295;23;20011;-87
2021/11/04 05:42:00;;;;;;;1.15;1.05;;;;;;;;;;6248360;23;20323;-87
2021/11/04 05:44:26;;;;;;;1.60;1.30;;;;;;;;;;6221806;23;20011;-86
2021/11/04 05:46:51;;;;;;;1.08;0.98;;;;;;;;;;6248693;23;19996;-87
2021/11/04 05:49:17;;;;;;;1.52;1.40;;;;;;;;;;6249069;23;20004;-86
2021/11/04 05:51:42;;;;;;;1.50;1.25;;;;;;;;;;6248226;23;20000;-87
2021/11/04 05:54:08;;;;;;;1.48;1.00;;;;;;;;;;6221444;23;20012;-86
2021/11/04 05:56:33;;;;;;;1.35;0.90;;;;;;;;;;6248578;23;20339;-89
2021/11/04 05:58:59;;;;;;;1.55;1.00;;;;;;;;;;6248395;23;20005;-86
2021/11/04 08:50:50;;;;;;;1.65;1.30;;;;;;;;;;6246055;22;20028;-86
2021/11/04 08:53:17;;;;;;;2.63;1.30;;;;;;;;;;6246479;23;20316;-85
2021/11/04 08:55:43;;;;;;;1.63;1.52;;;;;;;;;;6246753;23;20004;-85
2021/11/04 09:29:00;;;;;;;2.38;1.40;;;;;;;;;;6250453;22;20012;-81
2021/11/04 09:31:25;;;;;;;1.02;0.98;;;;;;;;;;6279427;22;20004;-80
2021/11/04 09:33:53;;;;;;;1.63;1.17;;;;;;;;;;6279492;22;20035;-81
2021/11/04 09:36:23;;;;;;;2.13;1.35;;;;;;;;;;6279315;22;20058;-81
2021/11/04 09:38:49;;;;;;;1.48;1.30;;;;;;;;;;6279419;22;20003;-82
2021/11/04 09:41:14;;;;;;;1.58;1.08;;;;;;;;;;6279654;22;20004;-86
2021/11/04 09:43:41;;;;;;;1.38;1.05;;;;;;;;;;6279697;22;19999;-87
2021/11/04 09:46:07;;;;;;;1.50;1.27;;;;;;;;;;6279915;22;20022;-87
2021/11/04 09:48:35;;;;;;;3.17;1.00;;;;;;;;;;6279817;22;20003;-85
2021/11/04 09:51:00;;;;;;;1.77;1.15;;;;;;;;;;6279945;22;20007;-86
2021/11/04 09:53:26;;;;;;;1.38;0.90;;;;;;;;;;6279544;22;20015;-83
2021/11/04 09:55:52;;;;;;;2.25;1.33;;;;;;;;;;6279222;22;20000;-85
2021/11/04 09:58:18;;;;;;;0.88;0.88;;;;;;;;;;6279787;22;20455;-87
2021/11/04 10:00:43;;;;;;;1.00;0.85;;;;;;;;;;6280013;22;20006;-87
2021/11/04 10:03:11;;;;;;;1.23;1.13;;;;;;;;;;6279467;22;20011;-84
2021/11/04 10:05:54;;;;;;;1.30;1.20;;;;;;;;;;6279883;22;20312;-79
2021/11/04 10:08:39;;;;;;;1.73;1.27;;;;;;;;;;6279481;22;20000;-85
2021/11/04 10:11:07;;;;;;;0.88;0.88;;;;;;;;;;6278783;22;20023;-80
2021/11/04 10:13:33;;;;;;;1.20;1.10;;;;;;;;;;6278648;22;20449;-84
2021/11/04 10:15:59;;;;;;;1.35;1.10;;;;;;;;;;6251617;22;19999;-81
2021/11/04 10:18:24;;;;;;;2.83;0.82;;;;;;;;;;6278792;22;20002;-78
2021/11/04 10:21:03;;;;;;;1.50;1.00;;;;;;;;;;6278990;22;20373;-82
2021/11/04 10:23:41;;;;;;;1.02;1.02;;;;;;;;;;6279400;22;20004;-82
2021/11/04 10:26:11;;;;;;;1.35;1.10;;;;;;;;;;6279183;22;20000;-86
2021/11/04 10:28:39;;;;;;;1.30;1.20;;;;;;;;;;6279576;22;20388;-89
2021/11/04 10:31:08;;;;;;;1.88;1.40;;;;;;;;;;6279253;22;20003;-86
2021/11/04 10:33:36;;;;;;;1.17;1.08;;;;;;;;;;6279503;22;20011;-87
2021/11/04 10:36:17;;;;;;;1.42;1.20;;;;;;;;;;6279115;22;20003;-83
2021/11/04 10:38:47;;;;;;;1.30;1.20;;;;;;;;;;6278797;22;20008;-82
2021/11/04 10:41:21;;;;;;;1.10;1.00;;;;;;;;;;6278559;22;20075;-81
2021/11/04 10:43:49;;;;;;;1.33;1.20;;;;;;;;;;6278382;22;20007;-81
2021/11/04 10:46:16;;;;;;;1.40;1.30;;;;;;;;;;6278874;22;20007;-85
2021/11/04 10:48:56;;;;;;;2.28;1.38;;;;;;;;;;6278721;22;20003;-78
2021/11/04 10:51:21;;;;;;;1.50;1.40;;;;;;;;;;6278347;22;20003;-79
2021/11/04 10:54:15;;;;;;;1.65;1.40;;;;;;;;;;6251127;22;20014;-81
2021/11/04 10:56:43;;;;;;;1.48;1.33;;;;;;;;;;6274198;22;20011;-81
2021/11/04 10:59:09;;;;;;;1.88;1.48;;;;;;;;;;6278349;22;20000;-81
2021/11/04 11:01:38;;;;;;;1.45;1.30;;;;;;;;;;6281204;22;20003;-86
2021/11/04 11:04:14;;;;;;;1.50;1.40;;;;;;;;;;6280568;22;20006;-80
2021/11/04 11:07:01;;;;;;;1.60;1.50;;;;;;;;;;6279800;22;19999;-81
2021/11/04 11:09:29;;;;;;;2.22;1.48;;;;;;;;;;6284438;22;20346;-83
2021/11/04 11:12:04;;;;;;;1.45;1.20;;;;;;;;;;6279009;22;20011;-82
2021/11/04 11:14:31;;;;;;;3.75;1.20;;;;;;;;;;6278241;22;20088;-79
2021/11/04 11:16:59;;;;;;;1.67;1.50;;;;;;;;;;6278231;22;20030;-85
2021/11/04 11:19:30;;;;;;;4.35;1.63;;;;;;;;;;6278060;22;20002;-78
2021/11/04 11:21:58;;;;;;;1.30;1.20;;;;;;;;;;6278185;22;20000;-84
2021/11/04 11:24:34;;;;;;;1.40;1.30;;;;;;;;;;6278081;22;19996;-80
2021/11/04 11:27:03;;;;;;;2.65;1.55;;;;;;;;;;6278222;22;20003;-81
2021/11/04 11:29:36;;;;;;;4.47;1.80;;;;;;;;;;6278280;22;20011;-79
2021/11/04 11:32:03;;;;;;;1.95;1.50;;;;;;;;;;6277979;22;19999;-80
2021/11/04 11:34:32;;;;;;;2.03;1.60;;;;;;;;;;6277864;22;20063;-80
2021/11/04 11:37:22;;;;;;;2.70;1.35;;;;;;;;;;6277716;22;20003;-80
2021/11/04 11:39:54;;;;;;;1.50;1.40;;;;;;;;;;6277882;22;20053;-79
2021/11/04 11:42:22;;;;;;;1.60;1.50;;;;;;;;;;6277835;22;20492;-78
2021/11/04 11:44:50;;;;;;;2.40;1.40;;;;;;;;;;6277855;22;20027;-81
2021/11/04 11:47:21;;;;;;;2.70;0.98;;;;;;;;;;6278251;22;20003;-81
2021/11/04 11:50:04;;;;;;;1.75;1.60;;;;;;;;;;6278062;22;20007;-79
2021/11/04 11:52:51;;;;;;;1.40;1.30;;;;;;;;;;6250980;22;19999;-79
2021/11/04 11:55:20;;;;;;;2.25;1.40;;;;;;;;;;6277597;22;20049;-78
2021/11/04 11:58:10;;;;;;;1.60;1.50;;;;;;;;;;6277753;22;20026;-79
2021/11/04 12:01:06;;;;;;;1.95;1.77;;;;;;;;;;6277614;22;20079;-79
2021/11/04 12:03:38;;;;;;;2.08;1.50;;;;;;;;;;6277617;22;20335;-79
2021/11/04 12:06:15;;;;;;;1.63;1.52;;;;;;;;;;6278125;22;20027;-79
2021/11/04 12:08:49;;;;;;;2.30;1.55;;;;;;;;;;6277893;22;20079;-79
2021/11/04 12:11:36;;;;;;;2.13;1.83;;;;;;;;;;6250307;22;20034;-79
2021/11/04 12:14:20;;;;;;;2.03;1.70;;;;;;;;;;6277389;22;20434;-79
2021/11/04 12:17:05;;;;;;;3.50;2.15;;;;;;;;;;6277519;22;19999;-79
2021/11/04 12:19:49;;;;;;;2.35;1.88;;;;;;;;;;6277587;22;20000;-79
2021/11/04 12:22:18;;;;;;;2.25;1.90;;;;;;;;;;6250307;22;20007;-79
2021/11/04 12:24:49;;;;;;;2.53;2.13;;;;;;;;;;6277518;22;20046;-79
2021/11/04 12:27:16;;;;;;;2.67;1.90;;;;;;;;;;6277783;22;20146;-79
2021/11/04 12:29:42;;;;;;;2.03;1.83;;;;;;;;;;6250311;22;20320;-79
2021/11/04 12:32:12;;;;;;;2.65;2.10;;;;;;;;;;6277581;22;20003;-80
2021/11/04 12:34:38;;;;;;;2.90;2.10;;;;;;;;;;6277126;22;20073;-79
2021/11/04 12:37:12;;;;;;;2.40;2.20;;;;;;;;;;6277499;22;20010;-80
2021/11/04 12:39:38;;;;;;;4.47;3.15;;;;;;;;;;6277383;22;20007;-80
2021/11/04 12:42:04;;;;;;;3.20;2.40;;;;;;;;;;6277486;22;20358;-80
2021/11/04 12:44:31;;;;;;;2.60;2.15;;;;;;;;;;6277010;22;20004;-80
2021/11/04 12:46:58;;;;;;;2.67;2.30;;;;;;;;;;6277079;22;20031;-79
2021/11/04 17:07:41;;;;;;;1.25;1.15;;;;;;;;;;6250745;22;20023;-81
2021/11/04 17:10:06;;;;;;;1.15;1.00;;;;;;;;;;6247007;23;20012;-80
2021/11/04 17:12:33;;;;;;;1.00;0.90;;;;;;;;;;6246764;23;20000;-82
2021/11/04 17:14:59;;;;;;;1.00;0.88;;;;;;;;;;6247088;23;20437;-81
2021/11/04 17:17:25;;;;;;;1.13;1.00;;;;;;;;;;6247137;23;20008;-81
2021/11/04 17:19:52;;;;;;;1.30;1.20;;;;;;;;;;6247011;23;20017;-80
2021/11/04 17:22:19;;;;;;;1.00;0.90;;;;;;;;;;6246750;23;20004;-82
2021/11/04 17:24:44;;;;;;;1.13;0.90;;;;;;;;;;6246770;23;20004;-81
2021/11/04 17:27:10;;;;;;;2.83;0.85;;;;;;;;;;6246748;23;20134;-82
2021/11/04 17:29:36;;;;;;;1.23;1.00;;;;;;;;;;6220141;23;20091;-81
2021/11/04 17:32:03;;;;;;;1.10;1.00;;;;;;;;;;6246974;23;20079;-81
2021/11/04 17:34:29;;;;;;;1.80;1.15;;;;;;;;;;6246637;23;20008;-79
2021/11/04 17:36:55;;;;;;;1.38;1.05;;;;;;;;;;6247914;23;20015;-82
2021/11/04 17:39:21;;;;;;;0.95;0.82;;;;;;;;;;6248926;23;19996;-83
2021/11/04 17:41:47;;;;;;;2.63;0.95;;;;;;;;;;6248614;23;20004;-81
2021/11/04 17:44:12;;;;;;;0.93;0.82;;;;;;;;;;6248657;23;20415;-82
2021/11/04 17:46:39;;;;;;;1.33;1.23;;;;;;;;;;6249275;23;20386;-81
2021/11/04 17:49:07;;;;;;;1.50;1.30;;;;;;;;;;6248914;23;20076;-79
2021/11/04 17:51:35;;;;;;;1.92;1.17;;;;;;;;;;6248820;23;20480;-81
2021/11/04 17:54:07;;;;;;;1.73;1.40;;;;;;;;;;6248595;23;20000;-79
2021/11/04 17:56:33;;;;;;;1.13;1.00;;;;;;;;;;6249209;23;20003;-82
2021/11/04 17:58:59;;;;;;;1.45;1.20;;;;;;;;;;6249454;23;20467;-78
2021/11/04 18:01:25;;;;;;;1.80;1.05;;;;;;;;;;6249629;23;20000;-87
2021/11/04 18:03:58;;;;;;;1.85;1.55;;;;;;;;;;6250087;23;19996;-82
2021/11/04 18:06:24;;;;;;;6.55;2.85;;;;;;;;;;6251417;22;20047;-81
2021/11/04 18:08:49;;;;;;;2.97;2.50;;;;;;;;;;6279389;22;20308;-81
2021/11/04 18:11:15;;;;;;;3.53;3.22;;;;;;;;;;6279179;22;20378;-82
2021/11/04 18:13:40;;;;;;;2.97;2.75;;;;;;;;;;6279698;22;20000;-82
2021/11/04 18:16:06;;;;;;;3.70;1.52;;;;;;;;;;6279561;22;20004;-81
2021/11/04 18:18:31;;;;;;;1.40;1.20;;;;;;;;;;6279195;22;19999;-81
2021/11/04 18:20:57;;;;;;;2.08;1.23;;;;;;;;;;6279278;22;20054;-81
2021/11/04 18:23:22;;;;;;;1.20;1.10;;;;;;;;;;6279187;22;20045;-82
2021/11/04 18:25:48;;;;;;;1.58;1.42;;;;;;;;;;6252447;22;20004;-85
2021/11/04 18:28:13;;;;;;;3.63;1.60;;;;;;;;;;6279400;22;20442;-84
2021/11/04 18:30:39;;;;;;;1.58;1.35;;;;;;;;;;6279460;22;20122;-83
2021/11/04 18:33:05;;;;;;;2.38;1.45;;;;;;;;;;6279472;22;20018;-78
2021/11/04 18:35:31;;;;;;;3.13;1.48;;;;;;;;;;6279346;22;20013;-83
2021/11/04 18:37:57;;;;;;;1.52;1.42;;;;;;;;;;6279414;22;20019;-83
2021/11/04 18:40:23;;;;;;;1.92;1.63;;;;;;;;;;6279549;22;20003;-86
2021/11/04 18:42:51;;;;;;;2.22;1.88;;;;;;;;;;6279249;22;20046;-83
2021/11/04 18:45:16;;;;;;;2.08;1.70;;;;;;;;;;6279332;22;20035;-83
2021/11/04 18:47:43;;;;;;;1.70;1.60;;;;;;;;;;6278691;22;20000;-83
2021/11/04 18:50:08;;;;;;;3.50;1.98;;;;;;;;;;6279412;22;19996;-89
2021/11/04 18:52:34;;;;;;;2.58;1.83;;;;;;;;;;6252148;22;20008;-84
2021/11/04 18:55:00;;;;;;;2.10;1.65;;;;;;;;;;6278886;22;20003;-87
2021/11/04 18:57:25;;;;;;;2.13;1.92;;;;;;;;;;6279650;22;20007;-80
2021/11/04 18:59:51;;;;;;;2.72;2.17;;;;;;;;;;6279172;22;20000;-81
2021/11/04 19:02:16;;;;;;;7.63;2.75;;;;;;;;;;6279048;22;20125;-90
2021/11/04 19:04:42;;;;;;;1.73;1.63;;;;;;;;;;6278562;22;20023;-80
2021/11/04 19:07:07;;;;;;;1.63;1.50;;;;;;;;;;6278580;22;20018;-79
2021/11/04 19:09:33;;;;;;;15.68;7.78;;;;;;;;;;6278739;22;20435;-80
2021/11/04 19:11:59;;;;;;;5.10;3.17;;;;;;;;;;6279066;22;20008;-82
2021/11/04 19:14:25;;;;;;;3.33;2.53;;;;;;;;;;6278207;22;20371;-77
2021/11/04 19:16:52;;;;;;;2.83;2.50;;;;;;;;;;6278179;22;20371;-76
2021/11/04 19:19:18;;;;;;;3.88;2.53;;;;;;;;;;6278414;22;20007;-77
2021/11/04 19:21:43;;;;;;;4.15;2.50;;;;;;;;;;6251303;22;20004;-77
2021/11/04 19:24:09;;;;;;;2.78;2.20;;;;;;;;;;6278375;22;20046;-77
2021/11/04 19:26:36;;;;;;;3.88;2.30;;;;;;;;;;6278660;22;20007;-76
2021/11/04 19:29:03;;;;;;;2.25;1.85;;;;;;;;;;6278612;22;20004;-77
2021/11/04 19:31:28;;;;;;;1.98;1.50;;;;;;;;;;6278302;22;20428;-75
2021/11/04 19:33:54;;;;;;;1.50;0.95;;;;;;;;;;6278265;22;20038;-76
2021/11/04 19:36:19;;;;;;;1.23;1.13;;;;;;;;;;6278106;22;20004;-77
2021/11/04 19:38:45;;;;;;;1.65;1.23;;;;;;;;;;6278489;22;20008;-76
2021/11/04 19:41:10;;;;;;;1.55;1.40;;;;;;;;;;6278201;22;20347;-77
2021/11/04 19:43:36;;;;;;;4.00;1.52;;;;;;;;;;6278293;22;20022;-76
2021/11/04 19:46:01;;;;;;;1.67;1.38;;;;;;;;;;6278332;22;20319;-76
2021/11/04 19:48:29;;;;;;;1.77;1.63;;;;;;;;;;6278317;22;19999;-77
2021/11/04 19:50:55;;;;;;;1.75;1.60;;;;;;;;;;6277902;22;20427;-77
2021/11/04 19:53:21;;;;;;;2.00;1.50;;;;;;;;;;6277737;22;20003;-77
2021/11/04 19:55:46;;;;;;;1.90;1.42;;;;;;;;;;6278175;22;20370;-77
2021/11/04 19:58:12;;;;;;;1.60;1.50;;;;;;;;;;6277820;22;20035;-77
2021/11/04 20:00:37;;;;;;;3.33;2.05;;;;;;;;;;6278033;22;19999;-77
2021/11/04 20:03:03;;;;;;;1.48;1.38;;;;;;;;;;6277930;22;20007;-76
2021/11/04 20:05:28;;;;;;;1.73;1.63;;;;;;;;;;6278095;22;20074;-77
2021/11/04 20:07:55;;;;;;;3.33;2.20;;;;;;;;;;6277621;22;20016;-76
2021/11/04 20:10:21;;;;;;;2.63;2.22;;;;;;;;;;6278066;22;20007;-77
2021/11/04 20:12:47;;;;;;;4.90;2.70;;;;;;;;;;6278334;22;20026;-76
2021/11/04 20:15:15;;;;;;;3.67;2.42;;;;;;;;;;6277817;22;20003;-76
2021/11/04 20:17:41;;;;;;;6.20;4.35;;;;;;;;;;6277920;22;20415;-77
2021/11/04 20:20:09;;;;;;;37.92;21.60;;;;;;;;;;6277878;22;19999;-77
2021/11/04 20:22:34;;;;;;;3.00;2.00;;;;;;;;;;6277647;22;20011;-77
2021/11/04 20:25:00;;;;;;;26.63;14.05;;;;;;;;;;6278044;22;20003;-77
2021/11/04 20:27:25;;;;;;;27.30;14.85;;;;;;;;;;6277851;22;20004;-77
2021/11/04 20:29:51;;;;;;;64.43;37.05;;;;;;;;;;6277915;22;20000;-77
2021/11/04 20:32:17;;;;;;;53.72;32.60;;;;;;;;;;6277860;22;19999;-76
2021/11/04 20:34:42;;;;;;;5.65;4.10;;;;;;;;;;6276764;22;20012;-76
2021/11/04 20:37:08;;;;;;;10.23;5.75;;;;;;;;;;6277026;22;20027;-76
2021/11/04 20:39:33;;;;;;;129.35;78.47;;;;;;;;;;6277912;22;20000;-75
2021/11/04 20:42:01;;;;;;;54.03;32.42;;;;;;;;;;6277559;22;20419;-75
2021/11/04 20:44:27;;;;;;;9.10;6.22;;;;;;;;;;6277180;22;20422;-75
2021/11/04 20:46:53;;;;;;;4.07;2.92;;;;;;;;;;6277334;22;20358;-76
2021/11/04 20:49:18;;;;;;;12.82;7.95;;;;;;;;;;6277205;22;20000;-76
2021/11/04 20:51:46;;;;;;;29.83;18.88;;;;;;;;;;6277213;22;20355;-77
2021/11/04 20:54:12;;;;;;;6.22;3.58;;;;;;;;;;6277019;22;20086;-77
2021/11/04 20:56:38;;;;;;;5.50;4.20;;;;;;;;;;6250246;22;20032;-77
2021/11/04 20:59:05;;;;;;;9.00;5.28;;;;;;;;;;6277354;22;19996;-77
2021/11/04 21:01:31;;;;;;;31.55;19.30;;;;;;;;;;6277409;22;20027;-77
2021/11/04 21:03:59;;;;;;;12.30;7.95;;;;;;;;;;6277234;22;20004;-77
2021/11/04 21:06:35;;;;;;;11.00;5.80;;;;;;;;;;6250613;22;20300;-77
2021/11/04 21:09:01;;;;;;;19.02;10.57;;;;;;;;;;6277701;22;20004;-78
2021/11/04 21:11:27;;;;;;;25.75;16.02;;;;;;;;;;6280315;22;20006;-78
2021/11/04 21:13:54;;;;;;;15.18;10.05;;;;;;;;;;6279860;22;20003;-78
2021/11/04 21:16:20;;;;;;;10.80;6.05;;;;;;;;;;6279951;22;20071;-77
2021/11/04 21:18:47;;;;;;;5.78;4.40;;;;;;;;;;6280123;22;20030;-78
2021/11/04 21:21:13;;;;;;;4.38;3.63;;;;;;;;;;6279570;22;20007;-79
2021/11/04 21:23:40;;;;;;;2.25;2.05;;;;;;;;;;6280060;22;20030;-78
2021/11/04 21:26:06;;;;;;;2.38;1.92;;;;;;;;;;6279601;22;20011;-79
2021/11/04 21:28:32;;;;;;;4.57;2.30;;;;;;;;;;6279846;22;20004;-77
2021/11/04 21:30:58;;;;;;;3.40;2.42;;;;;;;;;;6279675;22;20075;-78
2021/11/04 21:33:23;;;;;;;3.03;2.10;;;;;;;;;;6277980;22;20007;-78
2021/11/04 21:35:49;;;;;;;2.47;2.20;;;;;;;;;;6279090;22;20010;-77
2021/11/04 21:38:15;;;;;;;4.78;3.30;;;;;;;;;;6279605;22;20004;-77
2021/11/04 21:40:41;;;;;;;4.13;2.20;;;;;;;;;;6279262;22;20004;-78
2021/11/04 21:43:06;;;;;;;2.42;2.22;;;;;;;;;;6279672;22;20026;-77
2021/11/04 21:45:32;;;;;;;4.32;3.95;;;;;;;;;;6279317;22;20004;-77
2021/11/04 21:47:58;;;;;;;2.40;2.20;;;;;;;;;;6278975;22;20019;-78
2021/11/04 21:50:25;;;;;;;4.93;2.50;;;;;;;;;;6279361;22;20008;-78
2021/11/04 21:52:51;;;;;;;1.70;1.60;;;;;;;;;;6279388;22;20054;-78
2021/11/04 21:55:18;;;;;;;2.10;1.90;;;;;;;;;;6279638;22;20450;-77
2021/11/04 21:57:46;;;;;;;2.95;1.77;;;;;;;;;;6284019;22;20428;-77
2021/11/04 22:00:15;;;;;;;2.10;1.90;;;;;;;;;;6283777;22;19999;-77
2021/11/04 22:02:51;;;;;;;1.60;1.50;;;;;;;;;;6283197;22;20003;-76
2021/11/04 22:05:17;;;;;;;3.35;2.05;;;;;;;;;;6283227;22;20465;-78
2021/11/04 22:07:42;;;;;;;2.50;2.30;;;;;;;;;;6282609;22;20004;-77
2021/11/04 22:10:08;;;;;;;2.88;1.65;;;;;;;;;;6282845;22;20007;-77
2021/11/04 22:12:33;;;;;;;2.55;1.65;;;;;;;;;;6283011;22;20014;-76
2021/11/04 22:15:01;;;;;;;1.42;1.30;;;;;;;;;;6281061;22;20367;-77
2021/11/04 22:17:28;;;;;;;2.05;1.90;;;;;;;;;;6278980;22;19999;-77
2021/11/04 22:19:53;;;;;;;1.60;1.50;;;;;;;;;;6278881;22;20070;-77
2021/11/04 22:22:19;;;;;;;5.47;4.75;;;;;;;;;;6278826;22;20038;-77